Time;durP1;ratioP1;P1;durP2;ratioP2;P2;SDS_P1;SDS_P2;PMS_P1;PMS_P2;Temp;Humidity;BMP_temperature;BMP_pressure;BME280_temperature;BME280_humidity;BME280_pressure;Samples;Min_cycle;Max_cycle;Signal;HPM_P1;HPM_P2
2021/09/25 00:01:55;;;;;;;1.20;0.90;;;;;;;26.74;46.32;101257.13;5057119;28;20028;-85
2021/09/25 00:04:21;;;;;;;2.42;1.10;;;;;;;26.79;46.36;101256.69;5056828;28;20051;-81
2021/09/25 00:06:47;;;;;;;1.70;0.80;;;;;;;26.87;46.24;101254.63;5057102;28;20060;-82
2021/09/25 00:09:12;;;;;;;3.75;1.38;;;;;;;26.69;46.76;101246.38;5074621;28;20029;-91
2021/09/25 00:11:38;;;;;;;2.25;1.00;;;;;;;26.72;46.39;101249.13;5074289;28;20032;-82
2021/09/25 00:14:03;;;;;;;1.02;0.90;;;;;;;26.84;46.03;101245.03;5056164;28;20052;-90
2021/09/25 00:16:29;;;;;;;1.92;0.90;;;;;;;26.93;45.74;101242.56;5056730;28;20021;-82
2021/09/25 00:18:57;;;;;;;1.73;1.50;;;;;;;27.12;45.50;101237.63;5074601;28;20163;-93
2021/09/25 00:21:24;;;;;;;1.60;1.20;;;;;;;27.00;45.84;101234.09;5056622;28;20060;-85
2021/09/25 00:23:49;;;;;;;2.13;1.27;;;;;;;27.10;45.57;101233.22;5056681;28;20059;-81
2021/09/25 00:26:15;;;;;;;1.02;0.90;;;;;;;26.94;46.03;101229.34;5056212;28;20056;-93
2021/09/25 00:28:41;;;;;;;1.55;0.90;;;;;;;27.08;45.53;101226.44;5074005;28;20020;-81
2021/09/25 00:31:07;;;;;;;1.75;1.33;;;;;;;27.09;45.29;101225.22;5056424;28;20531;-82
2021/09/25 00:33:33;;;;;;;3.15;1.10;;;;;;;27.12;45.63;101220.78;5074287;28;20028;-92
2021/09/25 00:35:58;;;;;;;1.40;1.00;;;;;;;27.00;45.98;101220.06;5074312;28;20104;-81
2021/09/25 00:38:25;;;;;;;1.00;0.95;;;;;;;27.06;45.60;101215.66;5055999;28;20020;-92
2021/09/25 00:40:51;;;;;;;1.75;1.33;;;;;;;27.05;45.48;101225.28;5073358;28;20041;-89
2021/09/25 00:43:17;;;;;;;2.78;1.30;;;;;;;27.11;45.44;101222.78;5073942;28;20025;-82
2021/09/25 00:45:42;;;;;;;3.20;1.20;;;;;;;26.93;45.97;101217.31;5074083;28;20055;-92
2021/09/25 00:48:08;;;;;;;2.95;1.35;;;;;;;27.14;45.18;101212.78;5056276;28;20024;-82
2021/09/25 00:50:34;;;;;;;2.78;1.23;;;;;;;27.17;45.12;101215.53;5073974;28;20367;-93
2021/09/25 00:53:00;;;;;;;4.28;1.50;;;;;;;27.23;45.06;101216.69;5056071;28;20036;-92
2021/09/25 00:55:26;;;;;;;2.08;1.40;;;;;;;27.24;45.09;101214.66;5073452;28;20060;-81
2021/09/25 00:57:57;;;;;;;9.32;2.40;;;;;;;27.28;45.02;101218.22;5072671;28;20035;-81
2021/09/25 01:00:23;;;;;;;4.00;1.95;;;;;;;27.19;45.27;101215.09;5056309;28;20020;-92
2021/09/25 01:02:49;;;;;;;3.85;2.28;;;;;;;27.31;44.81;101223.81;5073666;28;20032;-82
2021/09/25 01:05:17;;;;;;;5.07;3.13;;;;;;;27.17;45.19;101218.34;5073562;28;20025;-91
2021/09/25 01:07:43;;;;;;;3.75;2.78;;;;;;;27.18;45.06;101225.53;5055869;28;20028;-93
2021/09/25 01:10:09;;;;;;;5.43;4.07;;;;;;;27.36;44.82;101226.16;5055425;28;20024;-92
2021/09/25 01:12:35;;;;;;;3.97;2.45;;;;;;;27.33;45.13;101223.38;5072128;28;20029;-91
2021/09/25 01:15:03;;;;;;;3.65;2.50;;;;;;;27.17;45.02;101228.75;5073654;28;20394;-91
2021/09/25 01:17:29;;;;;;;2.30;1.60;;;;;;;27.19;45.18;101224.31;5055604;28;20031;-82
2021/09/25 01:19:54;;;;;;;2.08;1.40;;;;;;;27.03;45.51;101221.25;5055115;28;20032;-90
2021/09/25 01:22:21;;;;;;;1.55;1.20;;;;;;;27.21;45.17;101216.31;5054911;28;20124;-81
2021/09/25 01:24:46;;;;;;;2.17;1.30;;;;;;;27.28;44.79;101218.22;5055567;28;20031;-86
2021/09/25 01:27:12;;;;;;;1.10;1.00;;;;;;;27.32;45.03;101219.00;5073529;28;20107;-91
2021/09/25 01:29:38;;;;;;;1.52;0.70;;;;;;;27.25;45.00;101213.44;5055485;28;20024;-81
2021/09/25 01:32:04;;;;;;;1.95;0.80;;;;;;;27.38;44.60;101203.31;5073204;28;20055;-82
2021/09/25 01:34:30;;;;;;;0.85;0.85;;;;;;;27.10;45.37;101205.19;5072049;28;20033;-91
2021/09/25 01:36:56;;;;;;;1.27;1.00;;;;;;;27.03;45.38;101205.22;5073165;28;20489;-82
2021/09/25 01:39:22;;;;;;;2.13;0.85;;;;;;;27.08;45.51;101199.19;5055017;28;20028;-81
2021/09/25 01:41:47;;;;;;;1.23;0.90;;;;;;;27.08;45.37;101198.41;5055123;28;20021;-82
2021/09/25 01:44:13;;;;;;;2.28;0.90;;;;;;;27.11;45.25;101194.75;5055021;28;20025;-83
2021/09/25 01:46:39;;;;;;;2.78;0.93;;;;;;;27.18;45.13;101202.31;5072113;28;20032;-81
2021/09/25 01:49:05;;;;;;;0.70;0.70;;;;;;;27.23;45.13;101196.25;5055321;28;20490;-93
2021/09/25 01:51:31;;;;;;;1.05;0.95;;;;;;;27.13;45.30;101194.31;5057772;28;20036;-91
2021/09/25 01:53:57;;;;;;;1.58;0.82;;;;;;;27.20;45.18;101199.88;5059364;28;20412;-81
2021/09/25 01:56:23;;;;;;;2.50;1.10;;;;;;;27.30;44.77;101198.97;5077014;28;20114;-94
2021/09/25 01:58:48;;;;;;;1.30;1.17;;;;;;;27.32;44.88;101197.34;5076659;28;20425;-81
2021/09/25 02:01:14;;;;;;;1.60;0.93;;;;;;;27.34;44.77;101191.31;5076482;28;20033;-92
2021/09/25 02:03:40;;;;;;;2.10;1.20;;;;;;;27.37;44.75;101193.28;5077137;28;20033;-83
2021/09/25 02:06:08;;;;;;;7.15;2.40;;;;;;;27.32;44.98;101188.13;5077076;28;20447;-83
2021/09/25 02:08:34;;;;;;;5.07;2.63;;;;;;;27.02;45.60;101191.59;5077243;28;20024;-91
2021/09/25 02:11:00;;;;;;;3.60;2.65;;;;;;;27.05;45.52;101191.63;5059152;28;20052;-92
2021/09/25 02:13:26;;;;;;;4.70;2.88;;;;;;;27.19;45.21;101192.66;5076675;28;20032;-81
2021/09/25 02:15:53;;;;;;;5.60;3.83;;;;;;;27.19;45.05;101187.84;5075874;28;20054;-95
2021/09/25 02:18:19;;;;;;;11.70;5.45;;;;;;;27.24;45.15;101200.66;5076633;28;20486;-90
2021/09/25 02:20:44;;;;;;;7.50;4.53;;;;;;;27.20;45.29;101186.63;5058744;28;20063;-83
2021/09/25 02:23:10;;;;;;;12.07;5.85;;;;;;;26.88;46.06;101186.13;5076726;28;20032;-93
2021/09/25 02:25:36;;;;;;;12.13;6.10;;;;;;;27.08;45.57;101187.97;5076509;28;20036;-83
2021/09/25 02:28:01;;;;;;;10.77;5.95;;;;;;;27.12;45.35;101175.91;5075381;28;20033;-92
2021/09/25 02:30:27;;;;;;;15.60;7.07;;;;;;;27.02;45.57;101169.16;5076344;28;20113;-89
2021/09/25 02:32:54;;;;;;;12.85;6.50;;;;;;;26.98;45.83;101169.22;5076533;28;20028;-81
2021/09/25 02:35:20;;;;;;;12.65;6.75;;;;;;;27.07;45.43;101163.94;5058773;28;20424;-82
2021/09/25 02:37:47;;;;;;;12.73;6.93;;;;;;;26.86;45.99;101158.50;5075101;28;20043;-83
2021/09/25 02:40:14;;;;;;;9.60;5.05;;;;;;;26.85;46.00;101154.13;5075322;28;20035;-81
2021/09/25 02:42:40;;;;;;;10.38;5.60;;;;;;;26.83;45.95;101153.75;5058709;28;20029;-92
2021/09/25 02:45:07;;;;;;;9.52;4.60;;;;;;;26.83;45.85;101148.94;5076146;28;20502;-84
2021/09/25 02:47:33;;;;;;;10.02;4.55;;;;;;;26.66;46.22;101147.06;5058791;28;20470;-81
2021/09/25 02:49:58;;;;;;;6.70;3.47;;;;;;;26.31;47.09;101139.72;5058194;28;20028;-82
2021/09/25 02:52:26;;;;;;;6.22;3.70;;;;;;;26.59;46.26;101132.31;5075889;28;20566;-81
2021/09/25 02:54:52;;;;;;;6.35;3.40;;;;;;;26.42;46.92;101137.66;5076141;28;20486;-81
2021/09/25 02:57:18;;;;;;;5.90;3.00;;;;;;;26.38;46.84;101124.88;5065554;28;20025;-82
2021/09/25 02:59:44;;;;;;;4.25;2.58;;;;;;;26.61;46.07;101124.31;5081171;28;20111;-83
2021/09/25 03:02:09;;;;;;;6.03;2.70;;;;;;;26.17;47.26;101129.41;5066804;28;20082;-81
2021/09/25 03:04:35;;;;;;;5.95;2.80;;;;;;;26.25;47.13;101125.34;5065931;28;20056;-81
2021/09/25 03:07:00;;;;;;;4.38;2.47;;;;;;;26.25;47.09;101124.56;5083372;28;20033;-81
2021/09/25 03:09:26;;;;;;;6.22;2.85;;;;;;;26.47;46.58;101123.22;5066158;28;20487;-82
2021/09/25 03:11:52;;;;;;;5.85;3.17;;;;;;;26.35;46.53;101120.06;5078004;28;20032;-91
2021/09/25 03:14:18;;;;;;;6.00;2.90;;;;;;;26.52;46.31;101125.56;5075387;28;20028;-82
2021/09/25 03:16:43;;;;;;;5.63;3.60;;;;;;;26.50;46.25;101124.38;5057699;28;20035;-89
2021/09/25 03:19:09;;;;;;;4.57;2.83;;;;;;;26.68;45.93;101133.47;5075499;28;20028;-81
2021/09/25 03:21:35;;;;;;;5.53;2.70;;;;;;;26.72;45.83;101130.59;5075407;28;20029;-93
2021/09/25 03:24:00;;;;;;;7.25;2.70;;;;;;;26.45;46.67;101122.03;5075998;28;20024;-93
2021/09/25 03:26:26;;;;;;;3.83;2.47;;;;;;;26.68;46.00;101124.25;5057685;28;20033;-82
2021/09/25 03:28:52;;;;;;;5.68;2.95;;;;;;;26.67;46.18;101117.03;5057638;28;20025;-94
2021/09/25 03:31:17;;;;;;;5.78;3.10;;;;;;;26.64;46.12;101123.47;5057625;28;20057;-81
2021/09/25 03:33:43;;;;;;;4.47;2.28;;;;;;;26.75;45.78;101122.19;5057430;28;20105;-92
2021/09/25 03:36:08;;;;;;;4.18;2.65;;;;;;;26.49;46.62;101122.81;5073863;28;20058;-92
2021/09/25 03:38:34;;;;;;;5.45;2.50;;;;;;;26.52;46.33;101122.75;5057464;28;20029;-81
2021/09/25 03:41:00;;;;;;;4.22;2.97;;;;;;;26.50;46.22;101121.59;5075100;28;20025;-81
2021/09/25 03:43:27;;;;;;;3.83;1.85;;;;;;;26.51;46.49;101121.16;5057226;28;20453;-82
2021/09/25 03:45:53;;;;;;;2.78;1.90;;;;;;;26.60;46.02;101120.72;5057272;28;20031;-81
2021/09/25 03:48:18;;;;;;;17.98;3.88;;;;;;;26.49;46.28;101120.78;5057544;28;20032;-81
2021/09/25 03:50:44;;;;;;;4.35;1.60;;;;;;;26.57;45.82;101120.72;5074722;28;20029;-92
2021/09/25 03:53:10;;;;;;;1.92;1.48;;;;;;;26.52;46.07;101127.56;5056785;28;20056;-81
2021/09/25 03:55:35;;;;;;;4.18;1.60;;;;;;;26.69;45.54;101131.44;5074533;28;20461;-81
2021/09/25 03:58:01;;;;;;;2.85;1.85;;;;;;;26.69;45.67;101125.84;5075247;28;20054;-80
2021/09/25 04:00:27;;;;;;;2.78;1.70;;;;;;;26.41;46.26;101129.66;5057099;28;20028;-82
2021/09/25 04:02:52;;;;;;;2.10;1.65;;;;;;;26.13;47.12;101127.84;5075150;28;20047;-92
2021/09/25 04:05:19;;;;;;;2.42;1.70;;;;;;;26.65;45.63;101139.06;5057093;28;20109;-82
2021/09/25 04:07:46;;;;;;;1.98;1.40;;;;;;;26.66;45.63;101143.47;5057244;28;20032;-91
2021/09/25 04:10:13;;;;;;;7.05;2.20;;;;;;;26.72;45.71;101141.81;5074389;28;20082;-80
2021/09/25 04:12:39;;;;;;;3.60;2.17;;;;;;;26.66;45.71;101135.84;5074771;28;20028;-81
2021/09/25 04:15:06;;;;;;;2.70;2.03;;;;;;;26.69;45.49;101132.25;5073074;28;20031;-94
2021/09/25 04:17:32;;;;;;;2.70;1.90;;;;;;;26.76;45.52;101129.38;5074741;28;20111;-93
2021/09/25 04:19:58;;;;;;;3.20;2.10;;;;;;;26.84;45.33;101127.31;5074424;28;20101;-81
2021/09/25 04:22:24;;;;;;;2.63;1.73;;;;;;;26.75;45.59;101124.16;5056477;28;20036;-81
2021/09/25 04:24:50;;;;;;;5.05;2.22;;;;;;;26.85;45.20;101128.09;5056338;28;20402;-82
2021/09/25 04:27:16;;;;;;;2.97;2.20;;;;;;;26.73;45.57;101124.59;5056184;28;20033;-81
2021/09/25 04:29:41;;;;;;;5.55;2.50;;;;;;;26.86;45.05;101124.88;5073322;28;20127;-92
2021/09/25 04:32:07;;;;;;;2.95;1.92;;;;;;;26.86;45.15;101119.25;5056485;28;20032;-88
2021/09/25 04:34:33;;;;;;;6.88;2.25;;;;;;;26.93;45.07;101124.00;5074186;28;20496;-81
2021/09/25 04:36:59;;;;;;;4.53;2.30;;;;;;;26.90;45.26;101113.59;5073940;28;20024;-81
2021/09/25 04:39:24;;;;;;;4.75;2.58;;;;;;;26.74;45.64;101119.78;5053197;28;20562;-81
2021/09/25 04:41:54;;;;;;;3.53;2.72;;;;;;;26.89;44.97;101120.44;5073713;28;20063;-86
2021/09/25 04:44:19;;;;;;;4.10;3.00;;;;;;;26.73;45.42;101113.38;5055846;28;20032;-81
2021/09/25 04:46:45;;;;;;;4.13;2.92;;;;;;;26.73;45.69;101116.16;5055961;28;20551;-93
2021/09/25 04:49:12;;;;;;;4.25;3.10;;;;;;;26.66;45.80;101121.03;5056105;28;20021;-81
2021/09/25 04:51:37;;;;;;;5.97;3.22;;;;;;;26.80;45.17;101112.50;5055480;28;20194;-81
2021/09/25 04:54:04;;;;;;;3.50;2.75;;;;;;;26.96;44.97;101111.94;5072857;28;20112;-81
2021/09/25 04:56:33;;;;;;;4.65;2.88;;;;;;;26.78;45.17;101112.13;5032041;28;20045;-82
2021/09/25 04:58:59;;;;;;;3.58;2.58;;;;;;;26.69;45.53;101121.03;5053683;28;20029;-90
2021/09/25 05:01:26;;;;;;;5.32;2.38;;;;;;;26.90;44.96;101120.00;5035669;28;20029;-82
2021/09/25 05:03:51;;;;;;;3.58;2.40;;;;;;;26.69;45.55;101114.63;5032420;28;20039;-81
2021/09/25 05:06:17;;;;;;;3.22;2.45;;;;;;;26.82;45.00;101110.88;5032850;28;20119;-82
2021/09/25 05:08:43;;;;;;;4.25;2.33;;;;;;;26.28;46.62;101104.13;5065441;28;20025;-81
2021/09/25 05:11:09;;;;;;;3.30;2.50;;;;;;;26.60;45.51;101109.50;5033569;28;20053;-81
2021/09/25 05:13:35;;;;;;;3.90;2.40;;;;;;;26.64;45.44;101103.84;5065698;28;20503;-91
2021/09/25 05:16:00;;;;;;;2.88;2.10;;;;;;;26.73;44.97;101109.78;5033665;28;20457;-92
2021/09/25 05:18:26;;;;;;;3.97;2.50;;;;;;;26.69;45.35;101100.63;5065796;28;20460;-82
2021/09/25 05:20:52;;;;;;;4.03;2.70;;;;;;;26.76;44.99;101104.16;5066488;28;20036;-91
2021/09/25 05:23:18;;;;;;;6.22;4.18;;;;;;;26.74;44.96;101106.53;5034378;28;20383;-90
2021/09/25 05:25:44;;;;;;;5.88;2.90;;;;;;;26.81;44.76;101106.47;5033648;28;20029;-91
2021/09/25 05:28:10;;;;;;;4.07;2.55;;;;;;;26.84;44.66;101102.06;5034283;28;20022;-93
2021/09/25 05:30:37;;;;;;;5.03;2.70;;;;;;;26.83;44.87;101103.28;5033013;28;20037;-84
2021/09/25 05:33:02;;;;;;;4.30;2.90;;;;;;;26.94;44.48;101109.56;5066932;28;20116;-90
2021/09/25 05:35:28;;;;;;;4.30;2.92;;;;;;;26.98;44.66;101109.50;5033972;28;20168;-92
2021/09/25 05:37:54;;;;;;;7.25;3.92;;;;;;;26.96;44.87;101111.94;5033173;28;20025;-92
2021/09/25 05:40:20;;;;;;;5.30;3.28;;;;;;;27.00;44.44;101110.72;5032958;28;20029;-92
2021/09/25 05:42:46;;;;;;;6.53;4.05;;;;;;;27.03;44.43;101118.28;5034126;28;20021;-87
2021/09/25 05:45:11;;;;;;;7.05;3.95;;;;;;;27.00;44.55;101119.13;5034381;28;20041;-91
2021/09/25 05:47:37;;;;;;;6.78;4.72;;;;;;;27.04;44.57;101113.50;5033915;28;20087;-95
2021/09/25 05:50:03;;;;;;;8.98;4.65;;;;;;;26.97;44.72;101114.31;5033465;28;20049;-93
2021/09/25 05:52:29;;;;;;;8.57;4.63;;;;;;;27.05;44.60;101115.91;5033441;28;20041;-94
2021/09/25 05:54:55;;;;;;;8.18;4.78;;;;;;;27.04;44.43;101108.69;5038274;28;20048;-93
2021/09/25 05:57:20;;;;;;;9.85;5.43;;;;;;;27.07;44.33;101115.47;5053513;28;20021;-93
2021/09/25 05:59:46;;;;;;;11.35;6.30;;;;;;;27.03;44.62;101112.66;5053676;28;20441;-90
2021/09/25 06:02:12;;;;;;;9.52;5.18;;;;;;;27.00;44.65;101107.91;5052723;28;20479;-92
2021/09/25 06:04:37;;;;;;;11.88;6.60;;;;;;;26.92;44.79;101116.81;5069134;28;20052;-81
2021/09/25 06:07:11;;;;;;;12.90;6.03;;;;;;;26.96;44.54;101111.94;5052045;28;20079;-94
2021/09/25 06:09:37;;;;;;;8.80;5.82;;;;;;;26.91;44.53;101118.03;5052048;28;20029;-92
2021/09/25 06:12:04;;;;;;;8.18;5.35;;;;;;;26.95;44.43;101116.75;5053790;28;20562;-92
2021/09/25 06:14:30;;;;;;;8.98;5.68;;;;;;;26.99;44.52;101120.34;5052721;28;20063;-87
2021/09/25 06:16:55;;;;;;;12.57;6.90;;;;;;;26.94;44.67;101125.59;5053419;28;20029;-86
2021/09/25 06:19:21;;;;;;;14.20;6.88;;;;;;;26.97;44.34;101119.94;5069170;28;20079;-90
2021/09/25 06:21:46;;;;;;;11.75;7.25;;;;;;;27.02;44.31;101121.50;5051751;28;20024;-82
2021/09/25 06:24:12;;;;;;;12.63;8.57;;;;;;;26.97;44.44;101119.13;5051896;28;20025;-83
2021/09/25 06:26:38;;;;;;;15.35;7.95;;;;;;;26.99;44.42;101111.94;5068633;28;20061;-92
2021/09/25 06:29:03;;;;;;;11.13;6.72;;;;;;;27.08;44.17;101120.66;5052446;28;20029;-82
2021/09/25 06:31:29;;;;;;;12.02;7.65;;;;;;;26.96;44.56;101128.78;5053307;28;20033;-91
2021/09/25 06:33:56;;;;;;;13.30;7.68;;;;;;;27.02;44.35;101127.91;5053453;28;20391;-93
2021/09/25 06:36:22;;;;;;;11.90;7.28;;;;;;;26.98;44.19;101129.97;5053316;28;20025;-92
2021/09/25 06:38:47;;;;;;;11.88;7.80;;;;;;;26.95;44.26;101124.38;5057082;28;20025;-82
2021/09/25 06:41:13;;;;;;;15.05;8.43;;;;;;;27.02;44.26;101130.72;5056960;28;20029;-90
2021/09/25 06:43:39;;;;;;;15.88;8.38;;;;;;;26.97;44.36;101119.94;5055714;28;20066;-92
2021/09/25 06:46:06;;;;;;;12.32;7.18;;;;;;;26.99;44.27;101128.75;5057135;28;20033;-92
2021/09/25 06:48:31;;;;;;;10.95;6.15;;;;;;;26.86;44.62;101127.66;5056260;28;20399;-89
2021/09/25 06:50:57;;;;;;;9.15;6.35;;;;;;;27.01;44.41;101126.31;5056242;28;20036;-93
2021/09/25 06:53:22;;;;;;;7.82;5.10;;;;;;;27.06;44.12;101119.50;5055879;28;20029;-91
2021/09/25 06:55:48;;;;;;;10.50;6.30;;;;;;;27.02;44.23;101122.28;5070475;28;20044;-82
2021/09/25 06:58:14;;;;;;;8.90;4.80;;;;;;;27.03;44.18;101123.88;5077378;28;20441;-91
2021/09/25 07:00:44;;;;;;;9.43;4.60;;;;;;;27.08;44.25;101120.66;5075686;28;20030;-88
2021/09/25 07:03:10;;;;;;;8.07;4.60;;;;;;;27.08;44.01;101115.06;5076791;28;20052;-90
2021/09/25 07:05:36;;;;;;;9.88;5.18;;;;;;;27.17;44.07;101120.16;5076447;28;20402;-89
2021/09/25 07:08:01;;;;;;;10.13;6.05;;;;;;;27.17;43.95;101110.97;5076256;28;20029;-89
2021/09/25 07:10:27;;;;;;;12.55;5.00;;;;;;;27.12;44.16;101115.00;5058663;28;20040;-90
2021/09/25 07:12:52;;;;;;;9.63;5.32;;;;;;;27.12;43.96;101112.19;5058352;28;20056;-91
2021/09/25 07:15:18;;;;;;;10.30;6.63;;;;;;;27.11;44.19;101113.41;5058490;28;20032;-89
2021/09/25 07:17:43;;;;;;;12.43;6.05;;;;;;;27.15;44.13;101108.56;5076431;28;20029;-82
2021/09/25 07:20:09;;;;;;;10.10;5.35;;;;;;;27.13;44.04;101104.56;5057190;28;20475;-82
2021/09/25 07:22:36;;;;;;;10.63;5.45;;;;;;;27.15;44.26;101107.78;5056550;28;20547;-81
2021/09/25 07:25:02;;;;;;;7.30;4.35;;;;;;;27.15;44.10;101102.16;5056973;28;20163;-79
2021/09/25 07:27:28;;;;;;;9.20;4.88;;;;;;;27.18;44.09;101101.31;5074786;28;20032;-80
2021/09/25 07:29:54;;;;;;;9.50;4.72;;;;;;;27.10;44.27;101095.78;5074819;28;20154;-81
2021/09/25 07:32:20;;;;;;;8.82;4.93;;;;;;;27.10;44.19;101101.41;5074355;28;20119;-85
2021/09/25 07:34:46;;;;;;;8.35;4.25;;;;;;;27.13;44.22;101098.97;5074668;28;20029;-84
2021/09/25 07:37:12;;;;;;;10.15;4.63;;;;;;;27.08;43.99;101101.03;5074448;28;20038;-84
2021/09/25 07:39:38;;;;;;;11.20;6.30;;;;;;;27.09;44.31;101099.81;5074630;28;20028;-82
2021/09/25 07:42:04;;;;;;;8.07;5.18;;;;;;;27.13;44.21;101102.59;5074675;28;20471;-82
2021/09/25 07:44:30;;;;;;;11.63;5.90;;;;;;;27.09;44.11;101104.63;5074446;28;20032;-81
2021/09/25 07:46:56;;;;;;;10.77;5.72;;;;;;;27.14;44.09;101103.38;5074505;28;20505;-82
2021/09/25 07:49:21;;;;;;;12.38;7.38;;;;;;;27.14;44.22;101104.19;5055748;28;20383;-81
2021/09/25 07:51:48;;;;;;;17.70;6.88;;;;;;;27.20;44.02;101110.09;5056472;28;20064;-81
2021/09/25 07:54:14;;;;;;;13.60;7.82;;;;;;;27.14;44.31;101104.19;5074143;28;20029;-82
2021/09/25 07:56:39;;;;;;;12.38;7.55;;;;;;;27.23;44.18;101118.50;5074526;28;20028;-81
2021/09/25 07:59:05;;;;;;;16.83;8.63;;;;;;;27.13;44.38;101105.41;5056097;28;20071;-80
2021/09/25 08:01:30;;;;;;;17.45;7.90;;;;;;;27.25;44.14;101109.66;5055705;28;20036;-82
2021/09/25 08:03:57;;;;;;;13.80;7.50;;;;;;;27.16;44.63;101110.16;5073841;28;20107;-82
2021/09/25 08:06:23;;;;;;;15.23;7.97;;;;;;;27.29;44.51;101108.41;5073679;28;20035;-82
2021/09/25 08:08:48;;;;;;;15.85;7.40;;;;;;;27.29;44.49;101108.41;5074346;28;20534;-83
2021/09/25 08:11:14;;;;;;;14.98;7.35;;;;;;;27.37;44.38;101098.69;5074146;28;20033;-82
2021/09/25 08:13:39;;;;;;;15.02;6.78;;;;;;;27.43;44.31;101101.81;5073778;28;20100;-81
2021/09/25 08:16:05;;;;;;;13.90;6.57;;;;;;;27.48;44.22;101100.56;5055807;28;20491;-81
2021/09/25 08:18:31;;;;;;;13.15;7.00;;;;;;;27.42;44.69;101094.59;5069315;28;20037;-90
2021/09/25 08:20:57;;;;;;;15.93;6.63;;;;;;;27.61;44.27;101101.59;5076262;28;20037;-80
2021/09/25 08:23:24;;;;;;;15.05;7.05;;;;;;;27.54;44.49;101093.28;5071748;28;20942;-77
2021/09/25 08:25:53;;;;;;;13.65;5.40;;;;;;;27.63;44.44;101099.16;5060288;28;20036;-80
2021/09/25 08:28:19;;;;;;;14.02;6.47;;;;;;;27.70;44.49;101099.09;5070772;28;20540;-80
2021/09/25 08:30:45;;;;;;;13.23;6.45;;;;;;;27.76;44.39;101102.22;5072018;28;20041;-80
2021/09/25 08:33:10;;;;;;;14.15;6.60;;;;;;;27.81;44.16;101098.94;5052000;28;20048;-84
2021/09/25 08:35:36;;;;;;;18.25;8.35;;;;;;;27.84;44.10;101090.47;5070527;28;20413;-82
2021/09/25 08:38:02;;;;;;;13.55;7.20;;;;;;;27.88;44.08;101088.38;5071210;28;20052;-82
2021/09/25 08:40:28;;;;;;;13.68;6.25;;;;;;;27.96;44.12;101096.72;5070949;28;20027;-80
2021/09/25 08:42:54;;;;;;;11.95;5.53;;;;;;;27.98;44.02;101092.28;5070595;28;20074;-83
2021/09/25 08:45:22;;;;;;;16.38;7.13;;;;;;;28.14;43.94;101095.22;5071154;28;20037;-80
2021/09/25 08:47:48;;;;;;;11.27;6.47;;;;;;;28.20;43.64;101092.75;5052495;28;20028;-81
2021/09/25 08:50:16;;;;;;;15.57;6.38;;;;;;;28.11;43.74;101095.28;5069723;28;20391;-80
2021/09/25 08:52:42;;;;;;;16.15;6.72;;;;;;;28.06;43.93;101096.56;5070948;28;20036;-80
2021/09/25 08:55:10;;;;;;;10.60;5.88;;;;;;;28.18;43.64;101098.75;5051787;28;20036;-80
2021/09/25 08:57:36;;;;;;;11.75;5.72;;;;;;;28.33;43.22;101107.00;5053059;28;20029;-80
2021/09/25 09:00:41;;;;;;;12.05;5.05;;;;;;;28.30;43.18;101105.06;5051652;28;20044;-78
2021/09/25 09:03:27;;;;;;;10.80;4.75;;;;;;;28.39;43.27;101096.88;5067213;28;20048;-81
2021/09/25 09:06:12;;;;;;;9.98;5.45;;;;;;;28.31;43.40;101099.00;5069377;28;20078;-82
2021/09/25 09:08:40;;;;;;;11.27;5.35;;;;;;;28.37;42.89;101090.88;5069647;28;20048;-82
2021/09/25 09:11:07;;;;;;;15.75;5.82;;;;;;;28.22;43.37;101093.09;5032430;28;20039;-83
2021/09/25 09:13:35;;;;;;;13.63;5.20;;;;;;;28.31;43.22;101095.41;5050928;28;20107;-81
2021/09/25 09:16:04;;;;;;;17.95;5.30;;;;;;;28.43;42.61;101095.59;5062316;28;20036;-83
2021/09/25 09:18:31;;;;;;;12.32;5.65;;;;;;;28.55;42.94;101091.38;5054200;28;20042;-83
2021/09/25 09:21:08;;;;;;;13.25;5.97;;;;;;;28.54;42.92;101094.63;5054334;28;20127;-83
2021/09/25 09:23:46;;;;;;;10.13;5.57;;;;;;;28.64;42.69;101091.63;5072359;28;20032;-82
2021/09/25 09:26:15;;;;;;;9.63;5.53;;;;;;;28.58;42.91;101084.13;5072635;28;20028;-81
2021/09/25 09:28:41;;;;;;;16.15;6.55;;;;;;;28.78;42.53;101092.56;5072560;28;20031;-80
2021/09/25 09:32:17;;;;;;;10.88;5.55;;;;;;;28.81;42.57;101086.09;5089377;28;20741;-81
2021/09/25 09:34:43;;;;;;;13.20;5.90;;;;;;;28.93;42.42;101088.31;5089406;28;20486;-80
2021/09/25 09:37:18;;;;;;;10.75;4.95;;;;;;;28.99;42.05;101083.78;5089158;28;20065;-83
2021/09/25 09:39:57;;;;;;;6.97;4.82;;;;;;;29.01;42.18;101084.91;5121571;28;20681;-81
2021/09/25 09:42:23;;;;;;;9.13;5.10;;;;;;;29.12;42.16;101079.09;5089342;28;20036;-82
2021/09/25 09:44:52;;;;;;;8.43;4.80;;;;;;;29.26;41.81;101073.19;5089459;28;20028;-81
2021/09/25 09:47:21;;;;;;;14.25;5.75;;;;;;;29.34;41.75;101071.00;5088785;28;20386;-82
2021/09/25 09:49:55;;;;;;;11.88;5.30;;;;;;;29.51;41.71;101077.50;5088557;28;20029;-83
2021/09/25 09:52:20;;;;;;;8.75;4.28;;;;;;;29.72;41.32;101076.25;5088524;28;20486;-81
2021/09/25 09:54:47;;;;;;;7.88;4.25;;;;;;;29.72;41.32;101073.44;5088525;28;20080;-81
2021/09/25 09:57:19;;;;;;;10.00;5.13;;;;;;;29.88;40.88;101078.28;5089858;28;20043;-80
2021/09/25 09:59:47;;;;;;;9.93;4.40;;;;;;;29.98;40.90;101072.41;5087493;28;20118;-81
2021/09/25 10:02:13;;;;;;;21.35;5.57;;;;;;;30.15;40.83;101076.03;5086415;28;20122;-81
2021/09/25 10:04:39;;;;;;;9.30;5.35;;;;;;;30.20;40.46;101069.09;5086574;28;20016;-83
2021/09/25 10:07:06;;;;;;;8.13;4.63;;;;;;;30.16;40.50;101076.88;5086134;28;20127;-81
2021/09/25 10:09:35;;;;;;;5.95;3.85;;;;;;;30.18;39.90;101075.19;5087554;28;20021;-81
2021/09/25 10:12:06;;;;;;;11.85;4.68;;;;;;;30.08;40.22;101074.22;5120342;27;20127;-81
2021/09/25 10:14:36;;;;;;;5.40;4.00;;;;;;;30.16;39.87;101069.19;5087932;28;20016;-84
2021/09/25 10:17:03;;;;;;;;;;;;;;;30.09;39.76;101070.16;5089781;28;20028;-83
2021/09/25 10:19:33;;;;;;;7.80;4.68;;;;;;;30.09;40.01;101070.16;5089348;28;19913;-81
2021/09/25 10:22:11;;;;;;;4.93;3.60;;;;;;;30.30;39.69;101066.00;5089240;28;20058;-80
2021/09/25 10:24:57;;;;;;;5.07;3.35;;;;;;;30.33;39.66;101062.31;5089317;28;20067;-83
2021/09/25 10:27:27;;;;;;;4.95;2.75;;;;;;;30.34;39.95;101061.06;5087763;28;20027;-81
2021/09/25 10:29:53;;;;;;;8.63;3.08;;;;;;;30.38;39.29;101055.38;5088920;28;20453;-83
2021/09/25 10:32:25;;;;;;;5.88;2.90;;;;;;;30.45;39.33;101060.78;5089056;28;20121;-84
2021/09/25 10:35:05;;;;;;;5.25;3.03;;;;;;;30.46;39.44;101055.97;5089089;28;20024;-82
2021/09/25 10:37:35;;;;;;;4.60;3.33;;;;;;;30.51;39.65;101050.56;5088957;28;20021;-81
2021/09/25 10:40:01;;;;;;;5.20;3.00;;;;;;;30.62;39.11;101050.31;5088874;28;20475;-81
2021/09/25 10:42:45;;;;;;;7.85;3.20;;;;;;;30.56;39.47;101049.25;5081681;28;20024;-81
2021/09/25 10:45:33;;;;;;;6.10;3.05;;;;;;;30.57;39.25;101048.00;5074085;28;20021;-83
2021/09/25 10:48:48;;;;;;;3.47;2.33;;;;;;;30.61;38.70;101046.69;5074824;28;20425;-81
2021/09/25 10:51:15;;;;;;;3.83;2.65;;;;;;;30.66;38.71;101048.19;5052683;28;20040;-81
2021/09/25 10:53:43;;;;;;;7.65;2.45;;;;;;;30.64;39.06;101048.59;5036197;28;20060;-81
2021/09/25 10:56:14;;;;;;;6.03;3.35;;;;;;;30.49;39.07;101044.59;5065351;28;20067;-82
2021/09/25 10:58:40;;;;;;;4.82;2.17;;;;;;;30.44;38.98;101042.28;5073709;28;20036;-83
2021/09/25 11:01:11;;;;;;;10.45;3.25;;;;;;;30.33;39.25;101050.25;5073759;28;20108;-82
2021/09/25 11:03:39;;;;;;;4.65;2.88;;;;;;;30.34;38.91;101049.00;5073811;28;20038;-81
2021/09/25 11:06:06;;;;;;;4.97;2.50;;;;;;;30.23;39.39;101046.47;5073567;28;20028;-81
2021/09/25 11:08:33;;;;;;;8.55;2.17;;;;;;;30.21;39.48;101045.31;5073556;28;20031;-82
2021/09/25 11:11:09;;;;;;;11.57;3.33;;;;;;;30.14;39.45;101051.91;5074810;28;20032;-81
2021/09/25 11:14:03;;;;;;;6.72;3.00;;;;;;;29.99;39.60;101048.63;5073556;28;20020;-82
2021/09/25 11:16:45;;;;;;;3.38;2.25;;;;;;;30.05;39.33;101046.09;5074740;28;20493;-81
2021/09/25 11:19:23;;;;;;;4.32;2.13;;;;;;;30.07;39.45;101049.25;5074772;28;20033;-82
2021/09/25 11:21:59;;;;;;;3.65;2.17;;;;;;;30.08;40.07;101043.22;5074627;28;20028;-81
2021/09/25 11:24:27;;;;;;;5.70;2.97;;;;;;;30.19;39.87;101042.16;5073521;28;20036;-81